Aviation Digital Data Service (ADDS)

Output produced by METARs form (1838 UTC 18 June 2019)
found at http://www.aviationweather.gov/metar/data/
 
KAAF 181753Z AUTO 19012KT 10SM CLR 32/24 A2999 RMK AO2 SLP154 T03170244 10317 20278 58005
KBOW 181747Z COR 00000KT 10SM VCTS SCT013 BKN025 24/23 A3003 RMK LTG DSNT N-SE
KBCT 181747Z 18005KT 10SM SCT0040 33/24 A3004
K1J0 181758Z AUTO VRB05KT 10SM CLR 28/24 A2998 RMK AO2 RAB01E28 TSE1659 SLP109 P0000 60000 T02830239 10306 20250 58006
KBKV 181753Z 26012G18KT 10SM FEW032 SCT046 32/24 A3002 RMK AO2 SLP164 60000 T03170239 10317 20244 58004
KCLW 181835Z AUTO 24008KT 10SM SCT026 30/22 A3001 RMK AO2
KCEW 181824Z AUTO 32004KT 10SM FEW027 SCT032 BKN046 24/22 A3000 RMK AO2 LTG DSNT ALQDS RAE21 TSE09 P0008 T02440222
KCTY 181815Z AUTO 26009KT 10SM SCT028 SCT033 BKN049 31/24 A2998 RMK AO2 T03070239
KCGC 181835Z AUTO 25010G14KT 10SM SCT025 SCT032 SCT038 30/23 A3001 RMK AO2 LTG DSNT S
KDAB 181829Z 24004KT 6SM -TSRA BR SCT030CB BKN070 BKN110 BKN200 24/24 A3001 RMK AO2 LTG DSNT ALQDS RAEMMB19 OCNL LTGICCG VC NE-SE TS VC NE-SE MOV E CB DSNT N S NW P0066 T02390239 $
KDAB 181812Z 1818/1918 19007KT P6SM VCSH SCT030 BKN060 BKN250 
     TEMPO 1818/1819 29015G25KT 2SM +TSRA BKN015CB BKN025 
     FM190000 23007KT P6SM SCT050 BKN200
       
K54J 181815Z AUTO 24007KT 10SM TS SCT025 SCT042 BKN070 26/24 A3000 RMK AO2 LTG DSNT ALQS T02630236
KDED 181835Z AUTO 20006KT 10SM SCT047 SCT050 SCT095 25/24 A3000 RMK AO2 LTG DSNT NE THRU SE
KDTS 181835Z VRB04KT 2SM -RA BR SCT021 BKN037 OVC100 24/22 A2997 RMK AO2 LTG DSNT NE AND S RAB20 TSB12 P0014 T02390217
KFHB 181835Z AUTO 11008KT 10SM SCT060 SCT070 30/24 A2996 RMK AO2 T02960241
KFXE 181753Z VRB04KT 10SM SCT030 33/20 A3004 RMK AO2 SLP173 T03280200 10339 20256 58013 $
KFXE 181731Z 1818/1918 21010KT P6SM VCTS SCT030CB BKN050 
     TEMPO 1819/1822 VRB20G30KT 1SM +TSRA SCT015 BKN025CB OVC040 
     FM182300 VRB05KT P6SM VCSH FEW020 SCT080 BKN120 
     FM190200 VRB02KT P6SM FEW020 SCT120 BKN250 
     FM191500 21005KT P6SM SCT030 SCT060
       
KFLL 181753Z 15010KT 10SM BKN040 BKN150 BKN250 31/23 A3003 RMK AO2 SLP170 T03110228 10322 20261 58013
KFLL 181731Z 1818/1924 17010KT P6SM VCTS SCT030CB BKN050 
     TEMPO 1819/1822 VRB20G30KT 1SM +TSRA SCT015 BKN025CB OVC040 
     FM182300 VRB05KT P6SM VCSH FEW020 SCT080 BKN120 
     FM190200 VRB03KT P6SM FEW020 SCT120 BKN250 
     FM191500 19005KT P6SM SCT030 SCT060
       
KFMY 181753Z 22009G16KT 10SM CLR 30/25 A3004 RMK AO2 SLP176 60010 T03060250 10317 20194 58006
KFMY 181723Z 1818/1918 19005KT P6SM SCT035 BKN100 
     FM182100 23009KT P6SM SCT030 BKN100 
     FM190000 17005KT P6SM SCT035 BKN120 
     FM191600 22008KT P6SM VCTS FEW200CB
       
KRSW 181753Z 23009KT 10SM CLR 29/24 A3006 RMK AO2 LTG DSNT SE AND S RAE35 SLP175 6//// T02940239 10322 20267 58004 PNO
KRSW 181723Z 1818/1918 20005KT P6SM SCT035 BKN100 
     FM182100 23009KT P6SM SCT030 BKN100 
     FM190000 19005KT P6SM SCT035 BKN120 
     FM191600 21008KT P6SM VCTS FEW200CB
       
KFPR 181753Z 25008KT 10SM SCT040 SCT055 32/22 A3003 RMK AO2 SLP168 T03170222 10322 20250 58014
KFPR 181726Z 1818/1918 19010KT P6SM VCTS SCT035CB BKN060 
     TEMPO 1820/1822 3SM TSRA BKN030CB 
     FM190100 21004KT P6SM SCT050 BKN200
       
KGNV 181823Z 26009G17KT 10SM TS SCT034 BKN049 OVC060 31/23 A3002 RMK AO2 LTG DSNT N AND SW TSB17 T03110233
KGNV 181738Z 1818/1918 25007KT P6SM VCTS SCT030CB BKN060 
     TEMPO 1818/1820 VRB18G28KT 3SM TSRA BKN020CB 
     FM182300 23004KT P6SM VCSH SCT025 BKN150 BKN250 
     FM190300 VRB03KT P6SM FEW020 SCT100 BKN250 
     FM190900 21004KT P6SM VCSH SCT015 BKN025 
     FM191500 24008KT P6SM VCTS OVC030CB
       
KHWO 181753Z 14007KT 10SM BKN041 BKN049 OVC065 32/22 A3005 RMK AO2 SLP176 T03170222 10328 20250 58013
KIMM 181815Z AUTO 22006KT 10SM VCTS CLR 27/24 A3005 RMK AO2 LTG DSNT ALQDS
KINF 181835Z AUTO 00000KT 10SM SCT040 27/27 A3001 RMK AO2 LTG DSNT NE AND S
KVQQ 181750Z VRB04KT 10SM BKN042 33/22 A2997
KVQQ 181738Z 1818/1918 23008KT P6SM VCTS BKN035CB 
     TEMPO 1818/1821 VRB15G25KT 3SM TSRA BKN025CB 
     FM182300 23005KT P6SM VCSH SCT025 BKN150 BKN250 
     FM190300 25004KT P6SM SCT020 BKN250 
     FM191100 24003KT P6SM VCSH SCT012 BKN025 
     FM191500 25010KT P6SM VCTS BKN040CB
       
KCRG 181753Z 11011KT 10SM OVC035 29/24 A2998 RMK AO2 SLP153 6//// T02890244 58014
KCRG 181817Z 1818/1918 13009KT P6SM VCTS BKN035CB 
     TEMPO 1818/1821 VRB15G25KT 3SM TSRA BKN025CB 
     FM182300 23006KT P6SM VCSH SCT025 BKN150 BKN250 
     FM190300 25004KT P6SM SCT020 BKN250 
     FM191100 24006KT P6SM VCSH SCT012 BKN025 
     FM191500 25010KT P6SM VCTS BKN040CB
       
KHEG 181835Z AUTO VRB04KT 4SM HZ FEW055 SCT070 32/21 A2997 RMK AO2 LTG DSNT SE-SW
KJAX 181756Z VRB03KT 10SM SCT035TCU BKN250 32/21 A2997 RMK AO2 SLP148 TCU OHD T03170211 10322 20239 58014 $
KJAX 181738Z 1818/1918 22007KT P6SM VCSH SCT035 BKN060 
     TEMPO 1819/1822 VRB15G25KT 3SM TSRA BKN025CB 
     FM182300 23006KT P6SM VCSH SCT025 BKN150 BKN250 
     FM190300 25004KT P6SM SCT020 BKN250 
     FM191100 24005KT P6SM VCSH SCT012 BKN025 
     FM191500 25010KT P6SM VCTS BKN040CB
       
K42J 181835Z AUTO 25005KT 8SM BKN060 28/25 A2998 RMK A01 TSNO
KLCQ 181815Z AUTO 29005KT 10SM BKN034 BKN043 OVC050 30/22 A2998 RMK AO2
KLAL 181750Z 00000KT 10SM VCSH SCT050 24/24 A3004
KLAL 181723Z 1818/1918 23007KT P6SM VCTS SCT020CB SCT050 BKN100 
     FM181900 24008KT P6SM SCT020 SCT050 BKN100 
     FM190000 22006KT P6SM FEW025 SCT080 
     FM191500 23007KT P6SM SCT040 BKN100 
     FM191700 25009KT P6SM VCTS BKN040CB BKN080
       
KX07 181835Z AUTO 00000KT 10SM CLR 25/23 A3005 RMK A01
KLEE 181753Z 17005KT 10SM -RA FEW049 BKN065 BKN090 24/23 A3004 RMK AO2 LTG DSNT E AND SE RAE24B44 TSE22 SLP170 P0040 60074 T02390228 10306 20228 58002
KLEE 181818Z 1818/1918 24008KT P6SM VCSH SCT035 BKN060 
     TEMPO 1818/1819 5SM SHRA BKN035 OVC090 
     FM182200 22007KT P6SM SCT050 BKN200
       
K24J 181835Z AUTO 00000KT 10SM SCT034 SCT041 32/23 A2996 RMK A01
KMTH 181753Z AUTO 17007KT 10SM CLR 33/25 A3006 RMK AO2 SLP177 T03330250 10333 20283 58007
KMTH 181734Z 1818/1918 15008KT P6SM FEW018 SCT080 
     FM182000 14006KT P6SM VCSH SCT020 SCT050 BKN120 
     FM190100 13006KT P6SM FEW018 SCT120 
     FM191000 15008KT P6SM SCT015 BKN120
       
KMAI 181827Z AUTO 24009KT 10SM FEW085 30/23 A2995 RMK AO2 LTG DSNT E AND SW T03000233
KMLB 181753Z 21013G18KT 10SM -RA FEW037 BKN075 OVC090 31/23 A3001 RMK AO2 RAB45 SLP162 P0000 60000 T03060233 10322 20256 58012
KMLB 181815Z 1818/1918 20011KT P6SM VCTS SCT035CB BKN060 
     TEMPO 1819/1821 VRB15G25KT 2SM +TSRA BKN030CB 
     FM190100 21007KT P6SM SCT050 BKN200
       
KTMB 181753Z AUTO 21007KT 10SM FEW049 33/22 A3005 RMK AO2 SLP174 T03330217 10333 20250 58010
KTMB 181731Z 1818/1918 19008KT P6SM VCTS SCT030CB BKN060 
     TEMPO 1819/1822 VRB20G30KT 1SM +TSRA SCT015 BKN025CB OVC040 
     FM182300 VRB05KT P6SM VCSH FEW020 SCT080 BKN120 
     FM190200 VRB03KT P6SM FEW020 SCT120 BKN250 
     FM191500 21005KT P6SM SCT030 SCT060
       
KMIA 181753Z 14010KT 10SM SCT032CB BKN045 BKN110 BKN250 31/19 A3005 RMK AO2 SLP175 CB N-NE MOV NE T03110189 10322 20261 58012
KMIA 181731Z 1818/1924 17010KT P6SM VCTS SCT030CB BKN060 
     TEMPO 1819/1822 VRB20G30KT 1SM +TSRA SCT015 BKN025CB OVC040 
     FM182300 VRB05KT P6SM VCSH FEW020 SCT080 BKN120 
     FM190200 VRB03KT P6SM FEW020 SCT120 BKN250 
     FM191500 20005KT P6SM SCT030 SCT060
       
KOPF 181753Z 20011KT 10SM -RA SCT040 BKN050 BKN070 29/22 A3006 RMK AO2 RAB46 SLP179 P0000 60000 T02890222 10322 20250 58010
KOPF 181731Z 1818/1918 18010KT P6SM VCTS SCT030CB BKN060 
     FM182300 VRB05KT P6SM VCSH FEW020 SCT080 BKN120 
     FM190200 VRB03KT P6SM FEW020 SCT120 BKN250 
     FM191500 21005KT P6SM SCT030 SCT060
       
KAPF 181834Z 17009KT 9SM -TSRA FEW011 SCT050 BKN110 24/ A3007 RMK AO2 LTG DSNT E-S RAB25 TSB28 P0000 T0239
KAPF 181731Z 1818/1918 18005KT P6SM VCSH SCT025 BKN090 
     FM190000 VRB03KT P6SM FEW020 SCT060 BKN250 
     FM191400 21010KT P6SM VCSH SCT030 BKN060
       
KEVB 181747Z 21008KT 10SM SCT036 BKN065 30/22 A3001
KOCF 181751Z 23003KT 10SM -RA FEW034 SCT050 BKN070 26/24 A3001 RMK AO2 LTG DSNT NW TSB1652E14 SLP165 P0002 60052 T02560239 10283 20239 58011 $
KOBE 181835Z AUTO 24011G19KT 155V265 10SM TS BKN025 BKN036 OVC100 28/23 A3005 RMK AO2 LTG DSNT SW THRU N
KORL 181833Z 21006KT 10SM -RA FEW055 SCT070 BKN095 24/22 A3002 RMK AO2 LTG DSNT NE AND E TSE20 P0019 T02390222
KISM 181826Z 35005KT 10SM -RA FEW018 SCT034 OVC045 24/22 A3004 RMK AO2 LTG DSNT NE AND SE AND W TSE02B05E20 PNO $
KISM 181726Z 1818/1918 23010KT P6SM VCTS SCT035CB BKN060 
     TEMPO 1818/1821 VRB15G25KT 2SM TSRA BKN015CB BKN025 
     FM182300 23006KT P6SM SCT050 BKN200
       
KMCO 181835Z 28005KT 10SM -RA FEW044 BKN070 OVC120 24/22 A3002 RMK AO2 LTG DSNT NE-S TSE35 P0044 T02390222
KMCO 181833Z 1819/1924 25009KT P6SM VCTS SCT035CB BKN060 
     TEMPO 1819/1820 4SM -TSRA BKN035CB BKN080 
     FM190000 21007KT P6SM SCT050 BKN200 
     FM191500 24010KT P6SM SCT030 SCT060 BKN200
       
KSFB 181828Z 24008KT 10SM VCTS -RA BKN060 BKN070 OVC110 24/22 A3002 RMK AO2 WSHFT 1740 LTG DSNT NE AND E TSB1759E22 P0013 T02440217
KSFB 181726Z 1818/1918 25011KT P6SM VCTS SCT035CB BKN060 
     TEMPO 1818/1821 VRB15G25KT 2SM TSRA BKN015CB BKN025 
     FM190000 22007KT P6SM SCT050 BKN200
       
KOMN 181750Z 31006KT 2SM TS RA BKN034 25/25 A3002
K28J 181815Z AUTO 25005KT 10SM SCT080 29/24 A2999 RMK AO2 LTG DSNT SE
KECP 181817Z 15017G28KT 3SM +RA BKN025 BKN034 BKN044 25/22 A2997 RMK AO2 PK WND 17028/1813 LTG DSNT N AND NW RAB13 P0012 T02500222
KECP 181824Z 1818/1918 19012KT P6SM VCTS BKN025CB OVC050 
     TEMPO 1818/1820 17012G28KT 3SM TSRA BKN025CB 
     FM182000 20010KT P6SM BKN050
       
KPNS 181827Z COR 32008KT 10SM TS OVC033 OVC044 27/24 A2997 RMK AO2 LTG DSNT ALQDS TSB27 T02720244
KPNS 181728Z 1818/1918 20015G19KT P6SM VCTS FEW024 SCT035CB 
     TEMPO 1818/1819 VRB15G25KT 1SM TSRA BKN015CB OVC025 
     FM182100 19008KT P6SM VCTS SCT030CB BKN200 
     TEMPO 1821/1824 1SM TSRA BKN025CB 
     FM190100 18005KT P6SM OVC250
       
K40J 181835Z AUTO 34004KT 10SM BKN030 BKN039 BKN070 31/25 A2998 RMK AO2 T03060248
KPCM 181615Z AUTO 29/24 RMK AO2 PWINO
KPMP 181753Z 15013KT 10SM FEW035 SCT250 31/24 A3004 RMK AO2 SLP172 T03110239 10311 20267 58013
KPGD 181753Z 23012KT 10SM CLR 31/23 A3006 RMK AO2 LTG DSNT N SLP179 T03060228 10311 20250 55003
KPGD 181723Z 1818/1918 21011KT P6SM SCT025 BKN100 
     FM190000 20007KT P6SM SCT025 BKN080 
     FM191500 22009KT P6SM VCTS SCT025CB BKN100 
     FM191700 24011KT P6SM VCTS SCT030CB BKN080
       
K2J9 181835Z AUTO 00000KT 10SM VCTS FEW003 FEW025 BKN042 26/25 A2998 RMK AO2 LTG DSNT ALQDS
KSGJ 181813Z 15008KT 10SM TS FEW018 SCT030 OVC055 27/24 A3000 RMK AO2 TSB07
KSGJ 181738Z 1818/1918 21006KT P6SM VCTS SCT025CB BKN070 
     TEMPO 1818/1822 VRB12G25KT 3SM TSRA BKN015CB OVC040 
     FM190000 23006KT P6SM SCT025 BKN150 BKN250 
     FM191100 24005KT P6SM VCSH SCT012 BKN025 
     FM191500 24010KT P6SM VCTS BKN040CB
       
KSPG 181753Z 23011KT 10SM FEW030 31/23 A3000 RMK AO2 SLP159 T03060228 10306 20267 58007
KPIE 181753Z 23012KT 10SM SCT033 31/23 A3002 RMK AO2 SLP165 T03110233 10311 20256 58006
KPIE 181723Z 1818/1918 21012KT P6SM SCT025 SCT100 BKN250 
     FM182100 24009KT P6SM FEW025 SCT100 
     FM190300 22005KT P6SM FEW020 SCT060 
     FM191500 22011KT P6SM VCTS SCT025CB BKN070
       
KSRQ 181753Z 21013KT 10SM FEW060 31/25 A3002 RMK AO2 SLP164 T03060250 10317 20250 58005
KSRQ 181723Z 1818/1918 24012KT P6SM SCT025 BKN100 
     FM190000 21007KT P6SM SCT025 BKN110 
     FM191500 22010KT P6SM VCTS SCT025CB BKN100 
     FM191700 23011KT P6SM VCTS SCT030CB BKN080
       
KSEF 181815Z AUTO 15005KT 4SM TSRA BR SCT045 BKN060 OVC070 24/23 A3006 RMK AO2 LTG DSNT ALQDS P0002 T02400229
KSUA 181747Z 18010KT 7SM BKN030 32/22 A3005
KSUA 181726Z 1818/1918 19010KT P6SM VCTS SCT035CB BKN060 
     TEMPO 1819/1822 3SM TSRA BKN030CB 
     FM190100 23004KT P6SM SCT050 BKN200
       
KTLH 181828Z 20010KT 10SM SCT027CB BKN050 BKN250 30/24 A2996 RMK AO2 WSHFT 1808 LTG DSNT N AND NW RAE00 CB NE AND NW MOV NE P0000 T03000244
KTLH 181720Z 1818/1918 22008KT P6SM -TSRA BKN035CB 
     FM190000 23004KT P6SM SCT025 BKN250 
     FM191500 26009KT P6SM VCTS BKN050CB
       
KTPF 181835Z AUTO 23010G15KT 195V255 10SM BKN034 OVC043 31/25 A3001 RMK AO2
KVDF 181835Z AUTO 26006KT 10SM BKN036 BKN043 31/23 A3001 RMK AO2
KTPA 181753Z 23009KT 10SM SCT035TCU BKN250 32/24 A3002 RMK AO2 SLP166 TCU N-E 60001 T03170239 10317 20267 58005 $
KTPA 181723Z 1818/1924 23008KT P6SM SCT035 SCT100 BKN250 
     FM190000 22007KT P6SM FEW020 SCT150 
     FM191500 23009KT P6SM VCTS SCT040CB BKN100 
     FM192100 24009KT P6SM SCT030 BKN080
       
KTIX 181750Z 21010KT 7SM SCT039 34/22 A3001
KTIX 181814Z 1818/1918 20011KT P6SM VCTS SCT035CB BKN060 
     TEMPO 1819/1821 VRB18G28KT 2SM +TSRA BKN025CB 
     FM190100 23006KT P6SM SCT050 BKN200
       
KVNC 181835Z AUTO 19013KT 10SM FEW016 31/25 A3004 RMK AO2 LTG DSNT E
KVRB 181753Z 23007KT 10SM FEW042 32/22 A3003 RMK AO2 SLP168 T03220217 10328 20250 58014
KVRB 181726Z 1818/1918 19010KT P6SM VCTS SCT035CB BKN060 
     TEMPO 1820/1822 3SM TSRA BKN030CB 
     FM190100 20007KT P6SM SCT050 BKN200
       
KF45 181810Z AUTO 20008KT 10SM FEW034 32/23 A3003 RMK AO2 LTG DSNT SW
KPBI 181753Z 23008KT 10SM SCT041 SCT150 BKN250 33/22 A3004 RMK AO2 SLP172 CB DSNT E-SE T03280222 10328 20261 58013
KPBI 181731Z 1818/1918 19010KT P6SM VCTS SCT030CB BKN050 
     TEMPO 1819/1822 VRB20G30KT 1SM +TSRA SCT015 BKN025CB OVC040 
     FM182300 VRB05KT P6SM VCSH FEW020 SCT080 BKN120 
     FM190200 VRB03KT P6SM FEW020 SCT120 BKN250 
     FM191500 22005KT P6SM SCT030 SCT060
       
KGIF 181753Z AUTO 33004KT 10SM FEW110 25/22 A3005 RMK AO2 LTG DSNT NE-SE RAE45 TSE38 SLP174 P0012 60012 T02500222 10317 20244 58003